createdAt,value
2018-11-10T00:03:22.028Z,8.35
2018-11-10T00:09:17.033Z,10.12
2018-11-10T00:15:12.033Z,9.84
2018-11-10T00:21:07.069Z,12.17
2018-11-10T00:27:02.040Z,11.85
2018-11-10T00:32:57.052Z,9.62
2018-11-10T00:38:52.067Z,9.57
2018-11-10T00:44:47.071Z,7.19
2018-11-10T00:50:42.068Z,9.83
2018-11-10T00:56:37.070Z,9.29
2018-11-10T01:02:32.134Z,11.07
2018-11-10T01:08:27.077Z,12.6
2018-11-10T01:14:22.101Z,11.18
2018-11-10T01:20:17.092Z,10.32
2018-11-10T01:26:12.090Z,10.69
2018-11-10T01:32:07.091Z,12.08
2018-11-10T01:38:02.105Z,9.33
2018-11-10T01:43:57.104Z,9.11
2018-11-10T01:49:52.104Z,7.53
2018-11-10T01:55:47.099Z,13.96
2018-11-10T02:01:42.098Z,9.44
2018-11-10T02:07:37.100Z,12.68
2018-11-10T02:13:32.124Z,7.44
2018-11-10T02:19:27.116Z,9.37
2018-11-10T02:25:22.128Z,11.47
2018-11-10T02:31:17.117Z,9.02
2018-11-10T02:37:12.152Z,8.42
2018-11-10T02:43:07.120Z,9.67
2018-11-10T02:49:02.140Z,9.26
2018-11-10T02:54:57.131Z,7.93
2018-11-10T03:00:52.146Z,10.32
2018-11-10T03:06:47.139Z,13.62
2018-11-10T03:12:42.128Z,7.37
2018-11-10T03:18:37.152Z,8.38
2018-11-10T03:24:32.163Z,8.18
2018-11-10T03:30:27.154Z,13.56
2018-11-10T03:36:22.151Z,9.75
2018-11-10T03:42:17.152Z,9.22
2018-11-10T03:48:12.155Z,9.32
2018-11-10T03:54:07.169Z,9.3
2018-11-10T04:00:02.189Z,9.53
2018-11-10T04:05:57.173Z,10.85
2018-11-10T04:11:52.200Z,6.45
2018-11-10T04:17:47.238Z,8.11
2018-11-10T04:23:42.178Z,8.22
2018-11-10T04:29:37.206Z,9.23
2018-11-10T04:35:32.187Z,9.24
2018-11-10T04:41:27.200Z,8.73
2018-11-10T04:47:22.170Z,6.98
2018-11-10T04:53:17.195Z,8.33
2018-11-10T04:59:12.208Z,10.03
2018-11-10T05:05:07.257Z,6.69
2018-11-10T05:11:02.243Z,7.04
2018-11-10T05:16:57.249Z,6.62
2018-11-10T05:22:52.230Z,7.13
2018-11-10T05:28:47.202Z,7.78
2018-11-10T05:34:42.311Z,8.66
2018-11-10T05:40:37.219Z,6.5
2018-11-10T05:46:32.239Z,8.24
2018-11-10T05:52:27.278Z,7.17
2018-11-10T05:58:22.297Z,7.67
2018-11-10T06:04:17.262Z,7.46
2018-11-10T06:10:12.475Z,6.5
2018-11-10T06:16:07.360Z,6.23
2018-11-10T06:22:02.251Z,6.43
2018-11-10T06:27:57.268Z,9.79
2018-11-10T06:33:52.240Z,7.51
2018-11-10T06:39:47.269Z,8.7
2018-11-10T06:45:42.258Z,8.42
2018-11-10T06:51:37.259Z,7.37
2018-11-10T06:57:32.337Z,9.24
2018-11-10T07:03:27.363Z,8.4
2018-11-10T07:09:22.316Z,16.56
2018-11-10T07:15:17.276Z,19.31
2018-11-10T07:21:12.360Z,24.86
2018-11-10T07:27:07.285Z,24.21
2018-11-10T07:33:02.297Z,23.95
2018-11-10T07:38:57.330Z,23.19
2018-11-10T07:44:52.307Z,22.59
2018-11-10T07:50:47.302Z,20.82
2018-11-10T07:56:42.291Z,22.37
2018-11-10T08:02:37.289Z,27.48
2018-11-10T08:08:32.341Z,31.01
2018-11-10T08:14:27.295Z,27.45
2018-11-10T08:20:22.304Z,34.12
2018-11-10T08:26:17.382Z,35.75
2018-11-10T08:32:12.295Z,39.09
2018-11-10T08:38:07.301Z,37.44
2018-11-10T08:44:02.338Z,39.14
2018-11-10T08:49:57.315Z,43.54
2018-11-10T08:55:52.363Z,41.75
2018-11-10T09:01:47.327Z,37.4
2018-11-10T09:07:42.350Z,42.5
2018-11-10T09:13:37.359Z,41.47
2018-11-10T09:19:32.381Z,40.91
2018-11-10T09:25:27.350Z,39.89
2018-11-10T09:31:22.387Z,37.68
2018-11-10T09:37:17.371Z,36.99
2018-11-10T09:43:12.391Z,41.32
2018-11-10T09:49:07.367Z,34.38
2018-11-10T09:55:02.420Z,37.99
2018-11-10T10:00:57.515Z,28.99
2018-11-10T10:06:52.369Z,37.87
2018-11-10T10:12:47.383Z,37.57
2018-11-10T10:18:42.372Z,39.42
2018-11-10T10:24:37.377Z,37.43
2018-11-10T10:30:32.415Z,32.92
2018-11-10T10:36:27.423Z,25.61
2018-11-10T10:42:22.394Z,28.41
2018-11-10T10:48:17.406Z,27.74
2018-11-10T10:54:12.412Z,26.45
2018-11-10T11:00:07.395Z,20.56
2018-11-10T11:06:02.422Z,13.64
2018-11-10T11:11:57.412Z,13.3
2018-11-10T11:17:52.453Z,10.63
2018-11-10T11:23:47.454Z,13.98
2018-11-10T11:29:42.535Z,14.25
2018-11-10T11:35:37.483Z,13.98
2018-11-10T11:41:32.643Z,11.63
2018-11-10T11:47:27.445Z,13.75
2018-11-10T11:53:22.454Z,12.27
2018-11-10T11:59:17.450Z,13.29
2018-11-10T12:05:12.476Z,13.16
2018-11-10T12:11:07.465Z,10.18
2018-11-10T12:17:02.511Z,12.96
2018-11-10T12:22:57.455Z,11.03
2018-11-10T12:28:52.479Z,9.16
2018-11-10T12:34:47.463Z,8.13
2018-11-10T12:40:42.504Z,5.4
2018-11-10T12:46:37.517Z,5.87
2018-11-10T12:52:32.483Z,5.47
2018-11-10T12:58:27.517Z,8.57
2018-11-10T13:04:22.506Z,13.95
2018-11-10T13:10:17.498Z,6.06
2018-11-10T13:16:12.483Z,5.5
2018-11-10T13:22:07.515Z,6.37
2018-11-10T13:28:02.540Z,9.07
2018-11-10T13:33:57.514Z,6.96
2018-11-10T13:39:52.527Z,7.01
2018-11-10T13:45:47.513Z,7.3
2018-11-10T13:51:42.677Z,6.52
2018-11-10T13:57:37.513Z,8.77
2018-11-10T14:03:32.524Z,7.33
2018-11-10T14:09:27.587Z,9.28
2018-11-10T14:15:22.542Z,7.69
2018-11-10T14:21:17.574Z,7.59
2018-11-10T14:27:12.556Z,8.86
2018-11-10T14:33:07.560Z,4.97
2018-11-10T14:39:02.540Z,7.33
2018-11-10T14:44:57.546Z,5.38
2018-11-10T14:50:52.604Z,10.21
2018-11-10T14:56:47.611Z,7.97
2018-11-10T15:02:42.591Z,8.55
2018-11-10T15:08:37.592Z,8.64
2018-11-10T15:14:32.572Z,10.07
2018-11-10T15:20:27.672Z,14.1
2018-11-10T15:26:22.625Z,6.49
2018-11-10T15:32:17.586Z,6.29
2018-11-10T15:38:12.596Z,6.45
2018-11-10T15:44:07.583Z,8.18
2018-11-10T15:50:02.591Z,7.17
2018-11-10T15:55:57.666Z,7.75
2018-11-10T16:01:52.651Z,32.07
2018-11-10T16:07:47.622Z,5.94
2018-11-10T16:13:42.636Z,8.8
2018-11-10T16:19:37.626Z,7.99
2018-11-10T16:25:32.616Z,6.3
2018-11-10T16:31:27.637Z,6.96
2018-11-10T16:37:22.691Z,8.29
2018-11-10T16:43:17.640Z,14.82
2018-11-10T16:49:12.630Z,10.12
2018-11-10T16:55:07.734Z,12.13
2018-11-10T17:01:02.721Z,11.2
2018-11-10T17:06:57.678Z,10.14
2018-11-10T17:12:52.642Z,9.23
2018-11-10T17:18:47.674Z,7.41
2018-11-10T17:24:42.646Z,12.41
2018-11-10T17:30:37.645Z,11.69
2018-11-10T17:36:32.649Z,11.13
2018-11-10T17:42:27.689Z,9.89
2018-11-10T17:48:22.730Z,9.73
2018-11-10T17:54:17.674Z,13.5
2018-11-10T18:00:12.664Z,17.45
2018-11-10T18:06:07.680Z,32.44
2018-11-10T18:12:02.668Z,33.36
2018-11-10T18:17:57.684Z,32.29
2018-11-10T18:23:52.713Z,16.87
2018-11-10T18:29:47.694Z,20.89
2018-11-10T18:35:42.741Z,14.07
2018-11-10T18:41:37.715Z,8.5
2018-11-10T18:47:32.719Z,9.64
2018-11-10T18:53:27.726Z,8.66
2018-11-10T18:59:22.702Z,12.9
2018-11-10T19:05:17.727Z,13.08
2018-11-10T19:11:12.724Z,6.9
2018-11-10T19:17:07.727Z,8.35
2018-11-10T19:23:02.764Z,15.68
2018-11-10T19:28:57.769Z,10.26
2018-11-10T19:34:52.710Z,9.51
2018-11-10T19:40:47.734Z,12.17
2018-11-10T19:46:42.730Z,8.65
2018-11-10T19:52:37.748Z,8.09
2018-11-10T19:58:32.743Z,13.35
2018-11-10T20:04:27.768Z,10.41
2018-11-10T20:10:22.750Z,11.02
2018-11-10T20:16:17.751Z,21.58
2018-11-10T20:22:12.774Z,17.06
2018-11-10T20:28:07.773Z,14.86
2018-11-10T20:34:02.751Z,17.67
2018-11-10T20:39:57.754Z,14.87
2018-11-10T20:45:52.783Z,10.56
2018-11-10T20:51:47.806Z,11.03
2018-11-10T20:57:42.783Z,11.04
2018-11-10T21:03:37.780Z,12.76
2018-11-10T21:09:32.787Z,9.59
2018-11-10T21:15:27.816Z,9.43
2018-11-10T21:21:22.806Z,9.9
2018-11-10T21:27:17.800Z,8.88
2018-11-10T21:33:12.795Z,10.38
2018-11-10T21:39:07.817Z,15.92
2018-11-10T21:45:02.856Z,16.31
2018-11-10T21:50:57.858Z,17.99
2018-11-10T21:56:52.849Z,28.68
2018-11-10T22:02:47.855Z,33.23
2018-11-10T22:08:42.913Z,25.65
2018-11-10T22:14:37.827Z,22.14
2018-11-10T22:20:32.834Z,26.66
2018-11-10T22:26:27.881Z,18.75
2018-11-10T22:32:22.878Z,18.41
2018-11-10T22:38:17.834Z,18.24
2018-11-10T22:44:12.841Z,24.43
2018-11-10T22:50:07.856Z,17.97
2018-11-10T22:56:02.876Z,20.29
2018-11-10T23:01:57.851Z,25.05
2018-11-10T23:07:52.865Z,28.34
2018-11-10T23:13:47.846Z,24.72
2018-11-10T23:19:42.874Z,29.4
2018-11-10T23:25:37.872Z,28.4
2018-11-10T23:31:32.928Z,31.22
2018-11-10T23:37:27.918Z,24.38
2018-11-10T23:43:22.881Z,17.83
2018-11-10T23:49:17.912Z,18.9
2018-11-10T23:55:12.883Z,17.4
